TimeCDT,TemperatureF,Dew PointF,Humidity,Sea Level PressureIn,VisibilityMPH,Wind Direction,Wind SpeedMPH,Gust SpeedMPH,PrecipitationIn,Events,Conditions,WindDirDegrees,DateUTC
12:32 AM,71.6,69.8,94,29.78,10.0,Calm,Calm,-,0.01,Thunderstorm,Thunderstorm,0,2013-06-29 05:32:00
12:41 AM,71.6,69.8,94,29.78,10.0,Calm,Calm,-,0.01,Rain-Thunderstorm,Light Thunderstorms and Rain,0,2013-06-29 05:41:00
12:56 AM,71.1,69.1,93,29.78,9.0,East,3.5,-,0.01,Rain-Thunderstorm,Light Thunderstorms and Rain,80,2013-06-29 05:56:00
1:29 AM,71.6,69.8,94,29.79,9.0,South,3.5,-,0.01,,Overcast,170,2013-06-29 06:29:00
1:42 AM,71.6,69.8,94,29.79,7.0,Calm,Calm,-,0.01,Thunderstorm,Thunderstorm,0,2013-06-29 06:42:00
1:56 AM,71.1,69.1,93,29.76,10.0,Calm,Calm,-,0.01,Thunderstorm,Thunderstorm,0,2013-06-29 06:56:00
1:59 AM,71.6,69.8,94,29.77,10.0,SSW,3.5,-,N/A,,Scattered Clouds,200,2013-06-29 06:59:00
2:56 AM,71.1,69.1,93,29.74,10.0,Calm,Calm,-,N/A,,Partly Cloudy,0,2013-06-29 07:56:00
3:56 AM,71.1,69.1,93,29.74,7.0,South,3.5,-,N/A,,Unknown,170,2013-06-29 08:56:00
4:22 AM,71.6,69.8,94,29.76,7.0,Calm,Calm,-,N/A,,Mostly Cloudy,0,2013-06-29 09:22:00
4:30 AM,71.6,69.8,94,29.76,7.0,Calm,Calm,-,N/A,,Mostly Cloudy,0,2013-06-29 09:30:00
4:42 AM,71.6,69.8,94,29.76,6.0,South,3.5,-,N/A,,Overcast,180,2013-06-29 09:42:00
4:56 AM,71.1,69.1,93,29.75,7.0,Calm,Calm,-,N/A,,Overcast,0,2013-06-29 09:56:00
5:06 AM,71.6,69.8,94,29.76,8.0,Calm,Calm,-,N/A,,Overcast,0,2013-06-29 10:06:00
5:56 AM,71.1,69.1,93,29.73,6.0,Calm,Calm,-,N/A,,Mostly Cloudy,0,2013-06-29 10:56:00
6:13 AM,71.6,69.8,94,29.76,5.0,Calm,Calm,-,N/A,,Mostly Cloudy,0,2013-06-29 11:13:00
6:56 AM,71.1,70.0,96,29.75,4.0,Calm,Calm,-,N/A,,Mostly Cloudy,0,2013-06-29 11:56:00
7:03 AM,71.6,69.8,94,29.77,4.0,Calm,Calm,-,N/A,,Overcast,0,2013-06-29 12:03:00
7:25 AM,71.6,69.8,94,29.78,5.0,SSW,3.5,-,N/A,,Overcast,210,2013-06-29 12:25:00
7:56 AM,73.9,71.1,91,29.76,9.0,SSW,4.6,-,N/A,,Scattered Clouds,210,2013-06-29 12:56:00
8:04 AM,75.2,71.6,89,29.77,10.0,SSW,3.5,-,N/A,,Partly Cloudy,210,2013-06-29 13:04:00
8:41 AM,75.2,71.6,89,29.78,10.0,Calm,Calm,-,N/A,,Mostly Cloudy,0,2013-06-29 13:41:00
8:56 AM,77.0,71.6,83,29.78,10.0,Calm,Calm,-,N/A,,Overcast,0,2013-06-29 13:56:00
9:56 AM,77.0,72.0,84,29.77,10.0,West,3.5,-,N/A,,Overcast,280,2013-06-29 14:56:00
10:56 AM,81.0,73.0,77,29.77,9.0,NW,3.5,-,N/A,,Overcast,310,2013-06-29 15:56:00
11:24 AM,82.4,73.4,74,29.77,10.0,West,3.5,-,N/A,,Scattered Clouds,260,2013-06-29 16:24:00
11:40 AM,82.4,73.4,74,29.77,10.0,South,4.6,-,N/A,,Mostly Cloudy,180,2013-06-29 16:40:00
11:56 AM,84.0,73.0,69,29.75,10.0,Variable,3.5,-,N/A,,Mostly Cloudy,0,2013-06-29 16:56:00
12:24 PM,86.0,71.6,62,29.76,10.0,Variable,3.5,-,N/A,,Scattered Clouds,0,2013-06-29 17:24:00
12:56 PM,87.1,73.0,63,29.74,10.0,SW,4.6,-,N/A,,Partly Cloudy,230,2013-06-29 17:56:00
1:56 PM,87.1,72.0,61,29.72,10.0,WSW,5.8,-,N/A,,Scattered Clouds,250,2013-06-29 18:56:00
2:56 PM,87.1,72.0,61,29.70,10.0,SW,5.8,-,N/A,,Scattered Clouds,230,2013-06-29 19:56:00
3:56 PM,86.0,71.1,61,29.70,10.0,SW,6.9,-,N/A,,Mostly Cloudy,220,2013-06-29 20:56:00
4:48 PM,75.2,69.8,83,29.74,1.2,NW,17.3,34.5,0.13,Rain-Thunderstorm,Heavy Thunderstorms and Rain,310,2013-06-29 21:48:00
4:56 PM,73.0,70.0,90,29.73,0.8,NW,12.7,24.2,0.26,Rain-Thunderstorm,Heavy Thunderstorms and Rain,310,2013-06-29 21:56:00
4:59 PM,73.4,69.8,88,29.74,1.0,NW,13.8,21.9,0.04,Rain-Thunderstorm,Heavy Thunderstorms and Rain,310,2013-06-29 21:59:00
5:10 PM,73.4,68.0,83,29.74,3.0,North,8.1,-,0.08,Rain-Thunderstorm,Thunderstorms and Rain,350,2013-06-29 22:10:00
5:53 PM,75.2,69.8,83,29.72,10.0,WNW,3.5,-,0.09,,Partly Cloudy,290,2013-06-29 22:53:00
5:56 PM,75.0,71.1,87,29.70,10.0,Calm,Calm,-,0.09,,Scattered Clouds,0,2013-06-29 22:56:00
6:13 PM,73.4,69.8,88,29.71,2.0,Calm,Calm,-,0.07,Rain,Heavy Rain,0,2013-06-29 23:13:00
6:21 PM,73.4,71.6,94,29.71,10.0,Calm,Calm,-,0.07,,Overcast,0,2013-06-29 23:21:00
6:56 PM,73.9,71.1,91,29.70,10.0,Calm,Calm,-,0.07,,Overcast,0,2013-06-29 23:56:00
7:56 PM,73.9,71.1,91,29.69,7.0,Calm,Calm,-,N/A,,Clear,0,2013-06-30 00:56:00
8:56 PM,73.0,71.1,93,29.72,10.0,South,4.6,-,0.03,,Scattered Clouds,170,2013-06-30 01:56:00
9:22 PM,73.4,69.8,88,29.75,10.0,South,8.1,-,N/A,Thunderstorm,Thunderstorm,170,2013-06-30 02:22:00
9:37 PM,73.4,69.8,88,29.75,10.0,South,4.6,-,N/A,,Overcast,170,2013-06-30 02:37:00
9:56 PM,72.0,70.0,93,29.73,10.0,South,4.6,-,N/A,,Mostly Cloudy,170,2013-06-30 02:56:00
10:56 PM,72.0,70.0,93,29.74,10.0,Calm,Calm,-,N/A,,Clear,0,2013-06-30 03:56:00
11:56 PM,72.0,70.0,93,29.74,10.0,Calm,Calm,-,N/A,,Mostly Cloudy,0,2013-06-30 04:56:00